Time;durP1;ratioP1;P1;durP2;ratioP2;P2;SDS_P1;SDS_P2;PMS_P1;PMS_P2;Temp;Humidity;BMP_temperature;BMP_pressure;BME280_temperature;BME280_humidity;BME280_pressure;Samples;Min_cycle;Max_cycle;Signal;HPM_P1;HPM_P2
2022/04/28 00:02:14;;;;;;;;;33.00;29.67;;;;;13.32;47.43;102163.28;4977982;28;65780;-58
2022/04/28 00:04:40;;;;;;;;;36.67;30.33;;;;;13.29;47.89;102155.41;4978110;28;53969;-58
2022/04/28 00:07:05;;;;;;;;;36.67;31.67;;;;;13.26;48.22;102152.84;4977773;28;65449;-58
2022/04/28 00:09:30;;;;;;;;;35.67;31.33;;;;;13.20;47.84;102157.50;4978540;28;56946;-58
2022/04/28 00:11:56;;;;;;;;;28.33;24.67;;;;;13.17;47.70;102152.28;4976822;28;57992;-58
2022/04/28 00:14:21;;;;;;;;;40.67;34.33;;;;;13.15;48.12;102164.81;4977613;28;67395;-58
2022/04/28 00:16:46;;;;;;;;;39.33;31.67;;;;;13.13;47.92;102160.47;4976287;28;45450;-58
2022/04/28 00:19:12;;;;;;;;;35.33;31.00;;;;;13.10;47.99;102161.47;4977164;28;73427;-58
2022/04/28 00:21:37;;;;;;;;;34.00;31.00;;;;;13.06;48.07;102168.75;4976918;28;46828;-58
2022/04/28 00:24:03;;;;;;;;;30.00;28.00;;;;;13.04;47.95;102157.25;4977584;28;70520;-58
2022/04/28 00:26:28;;;;;;;;;40.33;32.00;;;;;13.03;48.01;102149.28;4978291;28;45502;-58
2022/04/28 00:28:54;;;;;;;;;31.00;31.00;;;;;13.02;48.16;102144.88;4977111;28;74557;-58
2022/04/28 00:31:19;;;;;;;;;35.00;31.33;;;;;13.00;48.22;102152.94;4974448;28;73309;-58
2022/04/28 00:33:48;;;;;;;;;37.33;31.67;;;;;12.98;48.58;102138.78;4977236;28;53719;-58
2022/04/28 00:36:13;;;;;;;;;41.67;32.67;;;;;12.97;48.49;102141.50;4975171;28;45275;-58
2022/04/28 00:38:39;;;;;;;;;32.67;25.00;;;;;12.96;48.54;102145.09;4978696;28;56125;-58
2022/04/28 00:41:05;;;;;;;;;29.67;28.00;;;;;12.91;48.93;102143.47;4979082;28;58134;-58
2022/04/28 00:43:30;;;;;;;;;34.67;27.33;;;;;12.86;49.26;102142.78;4978630;28;45464;-58
2022/04/28 00:45:56;;;;;;;;;34.67;30.33;;;;;12.81;48.67;102149.25;4977721;28;46705;-58
2022/04/28 00:51:06;;;;;;;;;32.33;31.33;;;;;12.72;48.97;102156.69;4976866;28;45452;-58
2022/04/28 00:53:34;;;;;;;;;33.00;30.67;;;;;12.72;48.96;102158.47;4977936;28;45545;-58
2022/04/28 00:56:00;;;;;;;;;28.67;27.67;;;;;12.70;49.05;102147.84;4978074;28;45575;-58
2022/04/28 00:58:25;;;;;;;;;28.00;28.00;;;;;12.70;49.13;102152.34;4959971;28;51434;-58
2022/04/28 01:00:53;;;;;;;;;35.33;31.33;;;;;12.68;49.15;102156.84;4978458;28;45579;-58
2022/04/28 01:03:18;;;;;;;;;31.33;27.00;;;;;12.66;49.25;102150.69;4978491;28;45419;-58
2022/04/28 01:05:44;;;;;;;;;35.33;31.67;;;;;12.60;49.22;102143.78;4977280;28;45202;-58
2022/04/28 01:08:09;;;;;;;;;33.00;31.00;;;;;12.57;49.37;102147.44;4978182;28;55371;-58
2022/04/28 01:10:35;;;;;;;;;34.67;30.00;;;;;12.52;49.39;102149.41;4976586;28;73192;-58
2022/04/28 01:13:00;;;;;;;;;28.67;23.00;;;;;12.48;49.64;102147.78;4978599;28;45357;-58
2022/04/28 01:15:25;;;;;;;;;34.67;31.00;;;;;12.45;49.57;102145.22;4976860;28;54544;-58
2022/04/28 01:17:51;;;;;;;;;30.00;27.33;;;;;12.40;49.79;102141.84;4976909;28;74346;-58
2022/04/28 01:20:16;;;;;;;;;33.67;32.00;;;;;12.37;49.80;102141.94;4974260;28;73320;-58
2022/04/28 01:22:42;;;;;;;;;39.67;33.00;;;;;12.32;49.82;102139.47;4976556;28;69397;-58
2022/04/28 01:25:08;;;;;;;;;32.67;27.33;;;;;12.29;50.29;102146.72;4975694;28;45416;-58
2022/04/28 01:27:34;;;;;;;;;26.33;24.00;;;;;12.24;50.50;102141.53;4977952;28;46277;-58
2022/04/28 01:29:59;;;;;;;;;31.33;27.33;;;;;12.18;50.65;102141.75;4976517;28;45861;-58
2022/04/28 01:32:25;;;;;;;;;33.00;29.67;;;;;12.15;50.45;102139.19;4981736;28;45460;-58
2022/04/28 01:34:50;;;;;;;;;32.33;27.67;;;;;12.12;50.69;102142.81;4975585;28;45500;-58
2022/04/28 01:37:16;;;;;;;;;28.00;24.33;;;;;12.06;50.60;102133.25;4977384;28;57332;-58
2022/04/28 01:39:42;;;;;;;;;28.33;26.00;;;;;12.03;50.96;102136.03;4977104;28;45490;-58
2022/04/28 01:42:07;;;;;;;;;29.00;26.33;;;;;12.01;51.08;102134.34;4976532;28;45583;-58
2022/04/28 01:44:33;;;;;;;;;29.67;25.33;;;;;12.00;50.57;102136.13;4976218;28;69370;-58
2022/04/28 01:46:59;;;;;;;;;36.67;29.00;;;;;11.97;51.33;102135.34;4977170;28;75457;-58
2022/04/28 01:49:25;;;;;;;;;39.67;29.00;;;;;11.93;50.90;102134.59;4981054;28;45488;-58
2022/04/28 01:57:18;;;;;;;;;30.33;27.00;;;;;11.82;51.26;102147.41;4980258;28;45691;-57
2022/04/28 01:59:44;;;;;;;;;31.00;29.33;;;;;11.78;51.21;102140.44;4979311;28;62857;-58
2022/04/28 02:02:09;;;;;;;;;34.67;26.00;;;;;11.74;51.19;102137.84;4980515;28;62363;-58
2022/04/28 02:04:34;;;;;;;;;32.33;27.33;;;;;11.73;51.08;102141.47;4980294;28;70421;-58
2022/04/28 02:07:00;;;;;;;;;26.33;25.33;;;;;11.75;51.17;102142.28;4978356;28;75563;-58
2022/04/28 02:09:25;;;;;;;;;29.33;24.00;;;;;11.77;51.06;102146.69;4972188;28;72185;-58
2022/04/28 02:11:51;;;;;;;;;32.33;27.00;;;;;11.79;51.27;102152.84;4974813;28;45192;-57
2022/04/28 02:14:16;;;;;;;;;28.00;25.33;;;;;11.77;50.78;102146.69;4979976;28;70436;-58
2022/04/28 02:16:41;;;;;;;;;29.00;24.00;;;;;11.74;51.40;102151.19;4968126;28;56253;-58
2022/04/28 02:19:07;;;;;;;;;30.67;27.00;;;;;11.70;51.16;102151.34;4980579;28;45217;-58
2022/04/28 02:21:32;;;;;;;;;31.00;25.00;;;;;11.67;51.28;102152.31;4978865;28;63939;-57
2022/04/28 02:23:58;;;;;;;;;32.00;25.00;;;;;11.65;51.54;102155.97;4979228;28;45266;-58
2022/04/28 02:26:23;;;;;;;;;35.00;26.67;;;;;11.64;51.44;102160.44;4978456;28;50580;-58
2022/04/28 02:28:48;;;;;;;;;33.33;26.67;;;;;11.58;51.55;102150.81;4979620;28;45485;-58
2022/04/28 02:31:14;;;;;;;;;35.33;26.00;;;;;11.55;51.45;102155.38;4979949;28;53175;-58
2022/04/28 02:33:39;;;;;;;;;35.67;29.00;;;;;11.51;51.87;102164.41;4979339;28;70542;-58
2022/04/28 02:36:05;;;;;;;;;30.00;23.67;;;;;11.47;51.64;102168.09;4980751;28;45448;-58
2022/04/28 02:38:30;;;;;;;;;31.33;26.00;;;;;11.45;51.93;102160.16;4979590;28;52319;-57
2022/04/28 02:40:56;;;;;;;;;34.33;29.33;;;;;11.41;52.56;102164.69;4979704;28;45939;-57
2022/04/28 02:43:22;;;;;;;;;28.00;25.33;;;;;11.36;51.67;102166.63;4980056;28;45541;-57
2022/04/28 02:45:49;;;;;;;;;28.33;24.00;;;;;11.36;51.84;102166.63;4977993;28;46363;-57
2022/04/28 02:48:14;;;;;;;;;31.67;26.00;;;;;11.34;51.99;102167.59;4971878;28;45383;-57
2022/04/28 02:50:40;;;;;;;;;31.00;25.00;;;;;11.32;51.97;102166.81;4980094;28;45334;-57
2022/04/28 02:53:06;;;;;;;;;34.00;29.33;;;;;11.30;52.21;102176.63;4979583;28;45585;-57
2022/04/28 02:55:31;;;;;;;;;25.33;23.67;;;;;11.24;52.12;102170.56;4980110;28;46202;-57
2022/04/28 02:57:56;;;;;;;;;30.33;28.00;;;;;11.21;52.28;102170.66;4978642;28;62562;-57
2022/04/28 03:00:22;;;;;;;;;36.67;29.00;;;;;11.20;52.46;102173.38;4980012;28;59314;-58
2022/04/28 03:02:47;;;;;;;;;32.67;27.00;;;;;11.18;52.29;102175.22;4979742;28;45540;-58
2022/04/28 03:05:13;;;;;;;;;33.00;28.33;;;;;11.15;52.77;102176.16;4980213;28;46775;-57
2022/04/28 03:10:53;;;;;;;;;30.33;27.00;;;;;11.08;53.11;102174.59;4979713;28;45488;-58
2022/04/28 03:13:19;;;;;;;;;29.67;25.00;;;;;11.10;52.92;102178.09;4979493;28;45390;-57
2022/04/28 03:15:47;;;;;;;;;35.67;33.67;;;;;11.11;52.37;102173.63;4979675;28;46005;-58
2022/04/28 03:18:16;;;;;;;;;34.33;31.33;;;;;11.11;52.49;102177.19;4981013;28;45434;-58
2022/04/28 03:20:41;;;;;;;;;31.33;29.00;;;;;11.11;52.63;102177.19;4979618;28;45306;-58
2022/04/28 03:23:07;;;;;;;;;29.33;24.33;;;;;11.08;52.87;102177.25;4976261;28;45376;-58
2022/04/28 03:25:33;;;;;;;;;37.00;29.00;;;;;11.07;53.47;102179.06;4980042;28;46034;-57
2022/04/28 03:27:58;;;;;;;;;40.33;31.33;;;;;11.07;52.73;102178.22;4979328;28;45515;-57
2022/04/28 03:30:24;;;;;;;;;30.00;28.33;;;;;11.11;52.53;102181.63;4979199;28;45306;-57
2022/04/28 03:32:49;;;;;;;;;34.33;29.00;;;;;11.15;52.73;102183.31;4978476;28;45611;-57
2022/04/28 03:35:15;;;;;;;;;32.33;25.67;;;;;11.17;52.44;102176.13;4979978;28;45464;-57
2022/04/28 03:37:43;;;;;;;;;31.33;27.33;;;;;11.23;52.40;102184.78;4977433;28;63454;-57
2022/04/28 03:40:09;;;;;;;;;31.00;25.33;;;;;11.26;52.52;102183.81;4979526;28;45163;-57
2022/04/28 03:42:34;;;;;;;;;30.00;27.00;;;;;11.30;52.62;102185.47;4978290;28;45453;-57
2022/04/28 03:45:00;;;;;;;;;36.00;33.00;;;;;11.29;52.37;102186.41;4978865;28;46881;-57
2022/04/28 03:47:33;;;;;;;;;39.00;33.00;;;;;11.31;52.37;102179.22;4965596;28;64787;-57
2022/04/28 03:49:59;;;;;;;;;37.00;27.33;;;;;11.30;52.31;102182.81;4988167;28;45568;-57
2022/04/28 03:52:24;;;;;;;;;42.00;33.67;;;;;11.29;52.54;102181.09;4978505;28;54752;-57
2022/04/28 03:54:50;;;;;;;;;40.33;33.67;;;;;11.27;52.45;102176.72;4978215;28;45363;-57
2022/04/28 03:57:15;;;;;;;;;32.67;27.00;;;;;11.23;52.55;102178.59;4979524;28;45640;-57
2022/04/28 03:59:40;;;;;;;;;30.00;28.67;;;;;11.20;52.34;102179.56;4978262;28;57867;-57
2022/04/28 04:02:06;;;;;;;;;35.67;33.00;;;;;11.17;52.84;102184.09;4979768;28;45417;-57
2022/04/28 04:04:31;;;;;;;;;32.00;31.00;;;;;11.14;52.82;102184.22;4961739;28;46767;-57
2022/04/28 04:06:57;;;;;;;;;30.00;25.67;;;;;11.08;53.03;102193.25;4978861;28;45563;-57
2022/04/28 04:09:23;;;;;;;;;33.33;26.67;;;;;11.01;53.21;102191.69;4976283;28;45946;-57
2022/04/28 04:11:49;;;;;;;;;33.67;27.33;;;;;10.95;53.00;102189.22;4978483;28;45380;-57
2022/04/28 04:14:14;;;;;;;;;35.00;32.00;;;;;10.90;53.22;102192.88;4979971;28;47909;-57
2022/04/28 04:16:39;;;;;;;;;33.00;31.00;;;;;10.86;53.06;102193.00;4979587;28;45317;-59
2022/04/28 04:19:05;;;;;;;;;38.00;32.00;;;;;10.83;53.08;102193.09;4978345;28;56947;-57
2022/04/28 04:21:30;;;;;;;;;34.00;30.67;;;;;10.81;53.24;102200.25;4977565;28;58909;-57
2022/04/28 04:23:56;;;;;;;;;40.67;30.67;;;;;10.79;53.38;102202.09;4978377;28;46167;-58
2022/04/28 04:26:21;;;;;;;;;35.33;31.33;;;;;10.79;53.43;102202.09;4978698;28;61843;-59
2022/04/28 04:28:46;;;;;;;;;32.33;29.67;;;;;10.81;53.69;102205.56;4977404;28;56672;-57
2022/04/28 04:33:56;;;;;;;;;36.33;32.00;;;;;10.76;53.77;102205.72;4977896;28;45330;-58
2022/04/28 04:36:21;;;;;;;;;31.00;25.00;;;;;10.73;53.94;102201.34;4978639;28;45321;-58
2022/04/28 04:38:46;;;;;;;;;32.00;29.33;;;;;10.74;53.67;102207.53;4977232;28;48780;-58
2022/04/28 04:41:12;;;;;;;;;39.67;33.67;;;;;10.75;53.68;102209.28;4977410;28;60891;-58
2022/04/28 04:43:38;;;;;;;;;37.00;29.67;;;;;10.75;53.56;102212.84;4978248;28;46106;-58
2022/04/28 04:46:04;;;;;;;;;37.67;32.67;;;;;10.76;53.58;102214.56;4975766;28;45265;-58
2022/04/28 04:48:30;;;;;;;;;37.67;32.00;;;;;10.77;54.76;102215.47;4977254;28;53385;-58
2022/04/28 04:50:56;;;;;;;;;42.00;34.33;;;;;10.78;54.10;102221.63;4977985;28;45624;-58
2022/04/28 04:53:22;;;;;;;;;39.33;27.67;;;;;10.80;53.33;102218.00;4975898;28;46835;-58
2022/04/28 04:55:47;;;;;;;;;36.33;31.00;;;;;10.81;53.85;102213.56;4975295;28;57710;-58
2022/04/28 04:58:13;;;;;;;;;41.67;33.33;;;;;10.81;53.81;102210.88;4978393;28;45464;-58
2022/04/28 05:00:38;;;;;;;;;38.00;31.33;;;;;10.80;54.20;102214.50;4977629;28;60318;-58
2022/04/28 05:03:03;;;;;;;;;40.67;35.00;;;;;10.73;54.18;102227.97;4958548;28;46157;-57
2022/04/28 05:05:29;;;;;;;;;38.00;33.33;;;;;10.65;55.06;102226.44;4978065;28;45430;-58
2022/04/28 05:07:54;;;;;;;;;44.33;33.33;;;;;10.62;54.43;102223.84;4972509;28;58965;-57
2022/04/28 05:10:20;;;;;;;;;38.00;33.33;;;;;10.60;54.62;102229.22;4974383;28;45361;-58
2022/04/28 05:12:45;;;;;;;;;39.33;35.00;;;;;10.58;54.31;102228.38;4979468;28;66099;-57
2022/04/28 05:15:11;;;;;;;;;37.00;31.67;;;;;10.60;54.65;102237.22;4978122;28;45399;-58
2022/04/28 05:17:37;;;;;;;;;45.00;33.00;;;;;10.63;54.78;102231.78;4976978;28;45475;-57
2022/04/28 05:20:04;;;;;;;;;38.67;30.33;;;;;10.64;54.86;102243.31;4980142;28;45515;-58
2022/04/28 05:22:29;;;;;;;;;34.33;31.67;;;;;10.66;54.30;102241.47;4981415;28;46221;-58
2022/04/28 05:24:54;;;;;;;;;41.75;33.75;;;;;10.69;54.66;102246.72;4981574;28;63513;-57
2022/04/28 05:27:20;;;;;;;;;37.33;33.00;;;;;10.70;54.64;102249.34;4980855;28;58858;-57
2022/04/28 05:29:45;;;;;;;;;43.67;37.33;;;;;10.71;54.73;102253.75;4981143;28;61320;-58
2022/04/28 05:32:10;;;;;;;;;42.33;32.33;;;;;10.72;54.97;102266.13;4980504;28;65555;-57
2022/04/28 05:34:36;;;;;;;;;40.67;35.67;;;;;10.71;54.61;102261.72;4981762;28;52776;-57
2022/04/28 05:37:01;;;;;;;;;36.67;29.00;;;;;10.72;54.48;102266.13;4976033;28;59390;-57
2022/04/28 05:39:27;;;;;;;;;44.50;34.00;;;;;10.74;54.70;102271.41;4964166;28;45243;-57
2022/04/28 05:41:52;;;;;;;;;39.00;33.33;;;;;10.76;54.72;102261.59;4981083;28;46042;-57
2022/04/28 05:47:02;;;;;;;;;46.00;32.67;;;;;10.81;55.04;102277.44;4978521;28;45449;-57
2022/04/28 05:49:27;;;;;;;;;36.00;33.00;;;;;10.81;55.04;102274.78;4981233;28;45512;-57
2022/04/28 05:51:53;;;;;;;;;39.00;35.00;;;;;10.81;54.68;102274.78;4980250;28;66057;-57
2022/04/28 05:54:18;;;;;;;;;45.00;36.33;;;;;10.82;54.71;102281.84;4980990;28;45243;-57
2022/04/28 05:56:44;;;;;;;;;46.75;37.50;;;;;10.83;54.95;102279.13;4973520;28;54339;-57
2022/04/28 05:59:10;;;;;;;;;36.00;33.67;;;;;10.89;54.71;102284.31;4981109;28;45653;-57
2022/04/28 06:01:36;;;;;;;;;39.00;33.67;;;;;10.92;54.63;102288.66;4978306;28;46432;-57
2022/04/28 06:04:01;;;;;;;;;37.75;32.00;;;;;10.99;54.87;102292.03;4979839;28;45402;-57
2022/04/28 06:06:27;;;;;;;;;40.00;36.75;;;;;11.03;54.99;102296.34;4981469;28;45420;-58
2022/04/28 06:08:52;;;;;;;;;33.67;30.33;;;;;11.06;54.77;102296.28;4979121;28;58856;-58
2022/04/28 06:11:18;;;;;;;;;41.33;32.67;;;;;11.12;54.27;102300.53;4980466;28;65283;-58
2022/04/28 06:13:44;;;;;;;;;35.75;32.25;;;;;11.16;54.65;102296.88;4980154;28;45407;-58
2022/04/28 06:16:09;;;;;;;;;50.00;36.00;;;;;11.20;54.80;102298.56;4960603;28;45534;-59
2022/04/28 06:18:34;;;;;;;;;42.75;35.25;;;;;11.29;54.31;102302.72;4944378;28;45672;-58
2022/04/28 06:21:00;;;;;;;;;40.00;32.67;;;;;11.36;54.33;102304.31;4978007;28;64718;-58
2022/04/28 06:23:25;;;;;;;;;41.50;33.50;;;;;11.49;54.28;102300.34;4977870;28;45524;-58
2022/04/28 06:25:51;;;;;;;;;43.33;36.33;;;;;11.64;53.76;102299.03;4978974;28;45706;-58
2022/04/28 06:28:16;;;;;;;;;48.75;37.75;;;;;11.88;53.67;102304.50;4979223;28;45784;-58
2022/04/28 06:30:41;;;;;;;;;45.75;36.25;;;;;12.19;53.08;102308.84;4978513;28;60828;-57
2022/04/28 06:33:10;;;;;;;;;40.00;34.67;;;;;12.54;52.57;102312.16;4979304;28;61860;-57
2022/04/28 06:35:35;;;;;;;;;42.25;35.00;;;;;12.96;51.60;102316.03;4979950;28;45424;-58
2022/04/28 06:38:01;;;;;;;;;41.67;34.67;;;;;13.32;51.08;102308.44;4978896;28;45552;-57
2022/04/28 06:40:27;;;;;;;;;39.00;34.00;;;;;13.66;50.57;102311.69;4968489;28;46353;-58
2022/04/28 06:42:52;;;;;;;;;41.33;34.00;;;;;14.03;49.74;102300.38;4978094;28;46476;-55
2022/04/28 06:45:17;;;;;;;;;43.33;34.00;;;;;14.35;49.06;102308.91;4962006;28;45466;-54
2022/04/28 06:47:43;;;;;;;;;39.33;35.00;;;;;14.58;48.48;102309.72;4978979;28;45520;-53
2022/04/28 06:50:09;;;;;;;;;35.67;32.00;;;;;14.87;48.24;102315.63;4980073;28;45386;-53
2022/04/28 06:52:40;;;;;;;;;38.67;34.00;;;;;15.23;47.41;102312.25;4979399;28;45824;-55
2022/04/28 06:55:07;;;;;;;;;39.33;33.00;;;;;15.50;46.67;102322.63;4978670;28;45313;-54
2022/04/28 06:57:33;;;;;;;;;45.67;34.67;;;;;15.83;46.35;102319.34;4974358;28;45547;-54
2022/04/28 06:59:58;;;;;;;;;42.00;33.67;;;;;16.21;46.11;102325.47;4978951;28;45932;-55
2022/04/28 07:02:24;;;;;;;;;44.67;33.33;;;;;16.64;45.17;102324.28;4976582;28;45461;-55
2022/04/28 07:04:50;;;;;;;;;42.00;35.00;;;;;17.03;44.68;102328.53;4979569;28;45358;-56
2022/04/28 07:07:15;;;;;;;;;47.00;36.67;;;;;17.31;43.98;102317.16;4978655;28;45543;-55
2022/04/28 07:09:41;;;;;;;;;43.00;34.00;;;;;17.67;43.63;102313.38;4978684;28;51721;-55
2022/04/28 07:12:07;;;;;;;;;45.33;36.33;;;;;18.16;42.95;102314.22;4961569;28;45570;-54
2022/04/28 07:14:36;;;;;;;;;42.00;35.00;;;;;18.68;40.08;102323.72;4962102;28;45527;-55
2022/04/28 07:17:02;;;;;;;;;42.00;35.50;;;;;19.16;40.08;102319.03;4944848;28;45453;-54
2022/04/28 07:19:27;;;;;;;;;44.33;34.67;;;;;19.74;38.67;102318.97;4929662;28;46402;-55
2022/04/28 07:21:53;;;;;;;;;42.33;33.00;;;;;20.35;38.99;102312.31;4980180;28;61372;-55
2022/04/28 07:24:18;;;;;;;;;38.33;32.33;;;;;21.10;37.04;102323.34;4979585;28;57407;-56
2022/04/28 07:26:43;;;;;;;;;45.67;35.33;;;;;;;;4983960;28;60732;-55
2022/04/28 07:29:09;;;;;;;;;40.33;33.67;;;;;22.23;35.88;102319.72;4978906;28;65633;-55
2022/04/28 07:31:36;;;;;;;;;49.00;36.67;;;;;22.95;35.44;102325.00;4979253;28;45302;-56
2022/04/28 07:34:01;;;;;;;;;41.67;34.33;;;;;23.69;32.91;102317.34;4978027;28;45354;-56
2022/04/28 07:36:27;;;;;;;;;39.67;32.67;;;;;24.33;32.32;102318.44;4979089;28;45425;-54
2022/04/28 07:38:52;;;;;;;;;46.33;34.33;;;;;25.09;32.01;102313.63;4978329;28;46009;-53
2022/04/28 07:41:17;;;;;;;;;39.67;32.67;;;;;25.83;31.12;102314.34;4979399;28;59301;-54
2022/04/28 07:43:43;;;;;;;;;40.67;34.33;;;;;26.42;29.39;102317.13;4977752;28;58473;-55
2022/04/28 07:46:08;;;;;;;;;47.00;35.33;;;;;26.85;28.78;102314.94;4977662;28;55370;-55
2022/04/28 07:48:34;;;;;;;;;39.33;33.67;;;;;26.96;26.81;102325.69;4978871;28;62099;-53
2022/04/28 07:50:59;;;;;;;;;36.67;31.33;;;;;26.99;26.60;102321.78;4973865;28;45404;-54
2022/04/28 07:53:25;;;;;;;;;46.33;34.33;;;;;27.31;27.67;102331.44;4937475;28;46671;-56
2022/04/28 07:56:14;;;;;;;;;41.67;35.33;;;;;27.61;27.43;102327.56;4957787;28;45796;-57
2022/04/28 07:58:37;;;;;;;;;41.33;36.00;;;;;27.76;27.55;102327.06;4961960;28;45557;-57
2022/04/28 08:01:02;;;;;;;;;39.33;34.33;;;;;27.66;26.86;102335.31;4976986;28;45753;-57
2022/04/28 08:03:28;;;;;;;;;59.00;38.00;;;;;27.49;27.66;102329.63;4974585;28;45516;-57
2022/04/28 08:05:53;;;;;;;;;36.00;32.50;;;;;27.52;27.27;102333.94;4975101;28;45660;-56
2022/04/28 08:08:19;;;;;;;;;32.00;30.33;;;;;27.86;26.38;102331.44;4973899;28;47254;-52
2022/04/28 08:10:44;;;;;;;;;33.33;28.67;;;;;28.39;25.51;102331.63;4972674;28;45385;-51
2022/04/28 08:13:10;;;;;;;;;35.33;32.67;;;;;28.46;26.66;102332.72;4977203;28;59706;-53
2022/04/28 08:15:35;;;;;;;;;35.33;31.00;;;;;28.15;24.94;102330.41;4977038;28;45306;-49
2022/04/28 08:18:00;;;;;;;;;39.00;32.00;;;;;27.52;26.06;102332.09;4978829;28;46197;-52
2022/04/28 08:20:26;;;;;;;;;31.00;30.00;;;;;27.23;25.91;102330.31;4975770;28;47787;-51
2022/04/28 08:22:51;;;;;;;;;33.33;31.33;;;;;27.74;25.97;102329.94;4991582;28;45806;-52
2022/04/28 08:25:17;;;;;;;;;52.00;36.33;;;;;28.77;25.46;102335.03;4978011;28;60838;-54
2022/04/28 08:27:42;;;;;;;;;39.67;30.67;;;;;29.77;24.41;102336.41;4961063;28;46247;-49
2022/04/28 08:30:08;;;;;;;;;49.33;34.33;;;;;31.13;23.11;102326.81;4978845;28;64476;-50
2022/04/28 08:32:34;;;;;;;;;49.67;34.33;;;;;32.39;22.99;102332.34;4979542;28;45449;-52
2022/04/28 08:34:59;;;;;;;;;40.33;31.33;;;;;32.58;21.83;102339.19;4978039;28;45589;-51
2022/04/28 08:37:25;;;;;;;;;35.00;32.00;;;;;32.25;21.08;102340.34;4973856;28;46856;-54
2022/04/28 08:39:50;;;;;;;;;31.00;29.33;;;;;32.10;21.90;102340.25;4973565;28;45350;-54
2022/04/28 08:42:15;;;;;;;;;31.33;29.33;;;;;32.10;21.06;102343.03;4974690;28;45380;-52
2022/04/28 08:44:41;;;;;;;;;33.00;30.67;;;;;32.45;21.73;102339.84;4973560;28;45756;-53
2022/04/28 08:47:06;;;;;;;;;34.67;29.67;;;;;32.96;21.16;102336.47;4943530;28;46064;-51
2022/04/28 08:49:32;;;;;;;;;31.67;29.67;;;;;33.60;20.68;102340.50;4942336;28;63958;-52
2022/04/28 08:51:58;;;;;;;;;37.00;31.33;;;;;34.29;18.74;102341.91;4978354;28;45394;-52
2022/04/28 08:54:26;;;;;;;;;33.00;30.33;;;;;34.25;19.12;102337.81;4971723;28;45400;-51
2022/04/28 08:56:52;;;;;;;;;36.33;29.00;;;;;33.80;20.03;102330.56;4978453;28;46340;-50
2022/04/28 08:59:18;;;;;;;;;29.67;28.67;;;;;33.06;20.37;102331.50;4978420;28;45379;-51
2022/04/28 09:01:43;;;;;;;;;29.33;28.67;;;;;32.92;20.60;102332.34;4978632;28;45843;-51
2022/04/28 09:04:12;;;;;;;;;32.67;29.67;;;;;33.46;20.78;102339.50;4976996;28;60278;-50
2022/04/28 09:06:39;;;;;;;;;29.00;27.33;;;;;33.66;19.76;102336.13;4978729;28;46361;-49
2022/04/28 09:09:06;;;;;;;;;34.33;31.33;;;;;32.97;19.41;102324.38;4978710;28;45362;-50
2022/04/28 09:11:37;;;;;;;;;32.00;29.00;;;;;32.06;20.20;102316.03;4975491;28;45365;-49
2022/04/28 09:14:10;;;;;;;;;28.67;28.67;;;;;31.58;19.97;102318.91;4978849;28;45506;-53
2022/04/28 09:16:36;;;;;;;;;30.00;27.67;;;;;31.60;20.68;102317.72;4968989;28;45555;-52
2022/04/28 09:19:02;;;;;;;;;27.33;26.00;;;;;31.62;20.20;102317.56;4960763;28;45328;-49
2022/04/28 09:21:27;;;;;;;;;29.33;28.00;;;;;31.82;21.54;102326.19;4978878;28;45301;-51
2022/04/28 09:23:53;;;;;;;;;26.67;24.67;;;;;31.93;20.54;102314.78;4976269;28;59796;-54
2022/04/28 09:26:18;;;;;;;;;31.33;29.67;;;;;32.14;21.13;102305.00;4975842;28;46148;-50
2022/04/28 09:28:44;;;;;;;;;26.33;24.67;;;;;32.52;20.26;102310.53;4961272;28;45354;-49
2022/04/28 09:31:09;;;;;;;;;24.67;24.33;;;;;33.04;20.80;102308.81;4943111;28;53873;-50
2022/04/28 09:33:36;;;;;;;;;29.67;26.67;;;;;34.44;19.73;102305.94;4976412;28;49492;-51
2022/04/28 09:36:02;;;;;;;;;23.67;23.67;;;;;35.80;17.63;102304.56;4943354;28;46271;-53
2022/04/28 09:38:27;;;;;;;;;28.33;26.67;;;;;35.94;17.86;102313.75;4977873;28;45287;-49
2022/04/28 09:43:37;;;;;;;;;23.67;22.33;;;;;35.73;17.69;102298.16;4978449;28;45338;-51
2022/04/28 09:46:04;;;;;;;;;22.33;22.33;;;;;36.12;16.49;102304.00;4973921;28;64559;-50
2022/04/28 09:48:30;;;;;;;;;17.33;17.00;;;;;35.50;17.21;102295.75;4965305;28;46069;-51
2022/04/28 09:51:03;;;;;;;;;28.33;23.67;;;;;34.85;17.72;102299.69;4973317;28;45666;-50
2022/04/28 09:53:33;;;;;;;;;27.33;26.33;;;;;34.48;18.39;102311.94;4972034;28;45550;-53
2022/04/28 09:56:02;;;;;;;;;24.33;24.33;;;;;34.20;18.26;102290.66;4977029;28;45435;-51
2022/04/28 09:58:28;;;;;;;;;25.67;21.00;;;;;34.24;18.05;102290.03;4977573;28;45310;-51
2022/04/28 10:01:02;;;;;;;;;22.67;17.67;;;;;34.09;18.67;102289.25;4976321;28;45244;-52
2022/04/28 10:03:29;;;;;;;;;24.33;23.33;;;;;34.05;18.42;102294.31;4969830;28;45506;-53
2022/04/28 10:05:56;;;;;;;;;23.33;21.67;;;;;33.56;17.70;102289.53;4977201;28;45484;-52
2022/04/28 10:08:22;;;;;;;;;22.33;22.33;;;;;33.60;18.06;102296.41;4962255;28;45363;-51
2022/04/28 10:10:48;;;;;;;;;21.00;21.00;;;;;33.61;18.35;102295.31;4960336;28;45936;-52
2022/04/28 10:13:13;;;;;;;;;23.67;21.67;;;;;32.88;18.55;102292.44;4962857;28;45385;-52
2022/04/28 10:15:38;;;;;;;;;20.33;20.33;;;;;32.32;18.98;102285.44;4962022;28;67528;-52
2022/04/28 10:18:08;;;;;;;;;21.33;21.00;;;;;32.57;18.75;102283.28;4977419;28;63212;-50
2022/04/28 10:20:39;;;;;;;;;19.00;18.33;;;;;33.04;19.20;102286.75;4979409;28;45382;-52
2022/04/28 10:23:05;;;;;;;;;22.67;22.33;;;;;33.67;18.94;102282.66;4962937;28;45318;-52
2022/04/28 10:34:12;;;;;;;;;16.33;16.00;;;;;33.89;17.60;102283.56;4978773;28;45386;-53
2022/04/28 10:36:51;;;;;;;;;17.67;16.00;;;;;33.75;17.99;102266.00;4979884;28;47209;-50
2022/04/28 10:39:16;;;;;;;;;14.33;14.33;;;;;33.56;18.23;102262.84;4980051;28;45542;-52
2022/04/28 10:41:41;;;;;;;;;14.67;12.67;;;;;33.34;18.16;102263.81;4979934;28;45338;-54
2022/04/28 10:44:16;;;;;;;;;16.00;12.67;;;;;32.95;18.55;102266.72;4976733;28;45362;-50
2022/04/28 10:46:55;;;;;;;;;11.00;11.00;;;;;32.51;18.60;102266.66;4978042;28;45506;-53
2022/04/28 10:49:25;;;;;;;;;15.00;12.67;;;;;31.99;18.74;102263.66;4973509;28;45540;-50
2022/04/28 10:51:57;;;;;;;;;9.33;8.00;;;;;31.09;18.12;102259.53;4979783;28;45444;-51
2022/04/28 10:54:23;;;;;;;;;12.33;12.33;;;;;30.71;18.32;102265.63;4964062;28;45386;-51
2022/04/28 10:56:50;;;;;;;;;15.00;11.67;;;;;31.00;17.97;102265.06;4979415;28;47283;-51
2022/04/28 10:59:40;;;;;;;;;10.33;10.33;;;;;31.34;18.12;102254.78;4978869;28;45387;-49
2022/04/28 11:02:09;;;;;;;;;11.33;11.33;;;;;31.42;19.10;102248.38;4978631;28;45421;-51
2022/04/28 11:04:34;;;;;;;;;11.00;10.00;;;;;31.67;18.85;102255.47;4980213;28;45406;-48
2022/04/28 11:07:11;;;;;;;;;10.33;10.33;;;;;32.74;17.72;102261.13;4973336;28;65457;-53
2022/04/28 11:09:43;;;;;;;;;11.67;11.67;;;;;33.82;16.33;102252.28;4954480;28;45716;-49
2022/04/28 11:12:12;;;;;;;;;11.33;11.33;;;;;34.56;15.75;102248.25;4971829;28;45239;-52
2022/04/28 11:14:52;;;;;;;;;11.67;11.67;;;;;35.31;15.49;102261.41;4979339;28;45364;-51
2022/04/28 11:17:19;;;;;;;;;10.67;10.67;;;;;35.60;15.36;102268.53;4978456;28;47268;-49
2022/04/28 11:19:45;;;;;;;;;12.00;10.33;;;;;34.88;15.77;102252.28;4978693;28;45390;-53
2022/04/28 11:22:14;;;;;;;;;9.25;9.25;;;;;33.67;15.54;102269.72;4978074;28;59790;-54
2022/04/28 11:24:43;;;;;;;;;12.00;12.00;;;;;32.09;16.21;102261.50;4976824;28;46184;-53
2022/04/28 11:27:18;;;;;;;;;10.25;9.00;;;;;30.71;17.16;102265.63;4979801;28;46090;-53
2022/04/28 11:29:43;;;;;;;;;10.67;9.67;;;;;29.31;18.44;102279.22;4978141;28;45783;-54
2022/04/28 11:32:09;;;;;;;;;9.50;8.50;;;;;28.21;18.91;102277.81;4978873;28;53267;-53
2022/04/28 11:34:34;;;;;;;;;6.33;6.33;;;;;27.43;20.10;102277.50;4980017;28;45318;-52